Time;durP1;ratioP1;P1;durP2;ratioP2;P2;SDS_P1;SDS_P2;PMS_P1;PMS_P2;Temp;Humidity;BMP_temperature;BMP_pressure;BME280_temperature;BME280_humidity;BME280_pressure;Samples;Min_cycle;Max_cycle;Signal;HPM_P1;HPM_P2
2023/01/29 00:01:25;;;;;;;5.20;3.83;;;4.40;99.90;;;;;;7390522;19;20154;-71
2023/01/29 00:03:51;;;;;;;4.07;3.37;;;4.40;99.90;;;;;;7393366;19;20198;-72
2023/01/29 00:06:17;;;;;;;5.57;3.80;;;4.20;99.90;;;;;;7389513;19;20154;-72
2023/01/29 00:08:43;;;;;;;6.40;4.00;;;4.30;99.90;;;;;;7393110;19;20135;-72
2023/01/29 00:11:09;;;;;;;5.13;3.33;;;4.40;99.90;;;;;;7390422;19;20143;-71
2023/01/29 00:13:35;;;;;;;5.17;3.90;;;4.40;99.90;;;;;;7391340;19;20228;-71
2023/01/29 00:16:02;;;;;;;5.33;3.90;;;4.50;99.90;;;;;;7391389;19;20139;-72
2023/01/29 00:18:28;;;;;;;4.87;3.20;;;4.50;99.90;;;;;;7391886;19;20126;-72
2023/01/29 00:20:55;;;;;;;5.00;4.03;;;4.40;99.90;;;;;;7389486;19;20175;-71
2023/01/29 00:23:20;;;;;;;5.97;4.10;;;4.50;99.90;;;;;;7390087;19;20268;-72
2023/01/29 00:25:46;;;;;;;4.47;3.60;;;4.40;99.90;;;;;;7391096;19;20244;-71
2023/01/29 00:28:13;;;;;;;5.17;3.83;;;4.30;99.90;;;;;;7390676;19;20131;-71
2023/01/29 00:30:39;;;;;;;4.87;3.83;;;4.30;99.90;;;;;;7391131;19;20138;-71
2023/01/29 00:33:05;;;;;;;4.77;3.47;;;4.30;99.90;;;;;;7392312;19;20503;-72
2023/01/29 00:35:31;;;;;;;5.10;3.60;;;4.00;99.90;;;;;;7394287;19;20158;-73
2023/01/29 00:37:57;;;;;;;5.17;3.57;;;3.80;99.90;;;;;;7397100;19;20142;-72
2023/01/29 00:40:24;;;;;;;4.20;3.80;;;4.10;99.90;;;;;;7397852;19;20184;-71
2023/01/29 00:45:38;;;;;;;4.13;3.50;;;4.30;99.90;;;;;;7395487;19;20159;-71
2023/01/29 00:48:04;;;;;;;5.40;3.53;;;4.40;99.90;;;;;;7396298;19;20159;-71
2023/01/29 00:50:31;;;;;;;4.83;3.50;;;4.40;99.90;;;;;;7395902;19;20146;-72
2023/01/29 00:52:57;;;;;;;6.37;3.70;;;4.40;99.90;;;;;;7398305;19;20198;-71
2023/01/29 00:55:23;;;;;;;5.33;3.90;;;4.40;99.90;;;;;;7395637;19;20146;-71
2023/01/29 00:57:48;;;;;;;4.73;3.53;;;4.30;99.90;;;;;;7397357;19;20710;-72
2023/01/29 01:00:17;;;;;;;4.97;3.80;;;4.30;99.90;;;;;;7394466;19;20178;-71
2023/01/29 01:05:27;;;;;;;4.80;3.67;;;4.40;99.90;;;;;;7394275;19;20146;-72
2023/01/29 01:07:55;;;;;;;4.93;3.43;;;4.30;99.90;;;;;;7395953;19;20150;-71
2023/01/29 01:10:23;;;;;;;6.60;4.20;;;4.40;99.90;;;;;;7393082;19;20166;-72
2023/01/29 01:13:03;;;;;;;5.10;3.67;;;4.30;99.90;;;;;;7395396;19;20146;-72
2023/01/29 01:15:33;;;;;;;4.20;3.40;;;4.30;99.90;;;;;;7394073;19;20154;-72
2023/01/29 01:18:00;;;;;;;4.80;3.57;;;4.30;99.90;;;;;;7395044;19;20182;-71
2023/01/29 01:20:28;;;;;;;4.87;3.93;;;4.30;99.90;;;;;;7394891;19;20154;-71
2023/01/29 01:22:54;;;;;;;5.00;3.70;;;4.40;99.90;;;;;;7395772;19;20154;-72
2023/01/29 01:25:21;;;;;;;6.23;3.50;;;4.30;99.90;;;;;;7394183;19;20222;-72
2023/01/29 01:27:50;;;;;;;5.33;3.43;;;4.30;99.90;;;;;;7396135;19;20489;-72
2023/01/29 01:30:16;;;;;;;4.53;3.23;;;4.20;99.90;;;;;;7396970;19;20150;-73
2023/01/29 01:32:42;;;;;;;5.10;3.50;;;4.10;99.90;;;;;;7395619;19;20648;-70
2023/01/29 01:35:09;;;;;;;5.03;3.30;;;4.10;99.90;;;;;;7396606;19;20470;-71
2023/01/29 01:37:36;;;;;;;5.90;4.13;;;4.10;99.90;;;;;;7394306;19;20146;-72
2023/01/29 01:40:16;;;;;;;5.57;3.97;;;4.10;99.90;;;;;;7395643;19;20162;-72
2023/01/29 01:42:44;;;;;;;4.50;3.90;;;4.10;99.90;;;;;;7396892;19;20149;-71
2023/01/29 01:45:30;;;;;;;4.77;3.57;;;4.10;99.90;;;;;;7393983;19;20158;-72
2023/01/29 01:47:56;;;;;;;4.70;3.83;;;4.00;99.90;;;;;;7393732;19;20134;-72
2023/01/29 01:50:28;;;;;;;3.83;3.13;;;4.00;99.90;;;;;;7396245;19;20162;-72
2023/01/29 01:53:06;;;;;;;5.53;3.27;;;4.00;99.90;;;;;;7395579;19;20184;-72
2023/01/29 01:55:34;;;;;;;5.70;3.70;;;4.10;99.90;;;;;;7395957;19;20145;-72
2023/01/29 01:58:07;;;;;;;3.77;3.27;;;4.00;99.90;;;;;;7394485;19;20163;-71
2023/01/29 02:00:33;;;;;;;4.67;3.50;;;4.10;99.90;;;;;;7393300;19;20186;-71
2023/01/29 02:11:37;;;;;;;4.43;3.97;;;4.10;99.90;;;;;;7398087;19;20150;-72
2023/01/29 02:14:03;;;;;;;5.37;4.20;;;4.10;99.90;;;;;;7398111;19;20131;-72
2023/01/29 02:16:29;;;;;;;5.80;3.90;;;4.10;99.90;;;;;;7398917;19;20126;-71
2023/01/29 02:18:55;;;;;;;4.50;3.63;;;4.00;99.90;;;;;;7396631;19;20138;-72
2023/01/29 02:22:00;;;;;;;5.93;4.00;;;4.00;99.90;;;;;;7394885;19;20147;-71
2023/01/29 02:24:54;;;;;;;5.77;3.70;;;3.90;99.90;;;;;;7399991;19;20166;-72
2023/01/29 02:28:04;;;;;;;6.77;3.67;;;3.70;99.90;;;;;;7396088;19;20143;-71
2023/01/29 02:30:39;;;;;;;5.30;3.63;;;3.80;99.90;;;;;;7393990;19;20594;-72
2023/01/29 02:33:16;;;;;;;7.90;4.03;;;3.90;99.90;;;;;;7393584;19;20899;-71
2023/01/29 02:36:23;;;;;;;5.17;4.03;;;4.00;99.90;;;;;;7394447;19;20138;-73
2023/01/29 02:39:30;;;;;;;5.67;3.40;;;3.90;99.90;;;;;;7392991;19;20233;-72
2023/01/29 02:42:19;;;;;;;4.83;3.47;;;4.00;99.90;;;;;;7390430;19;20157;-72
2023/01/29 02:45:22;;;;;;;4.70;3.60;;;3.80;99.90;;;;;;7391361;19;20159;-73
2023/01/29 02:47:59;;;;;;;6.93;3.87;;;3.80;99.90;;;;;;7392193;19;20146;-71
2023/01/29 02:50:32;;;;;;;5.23;3.60;;;3.80;99.90;;;;;;7392225;19;20213;-71
2023/01/29 02:53:20;;;;;;;4.97;3.63;;;3.80;99.90;;;;;;7393131;19;20134;-72
2023/01/29 02:56:10;;;;;;;5.97;3.50;;;3.80;99.90;;;;;;7391485;19;20188;-71
2023/01/29 02:58:47;;;;;;;3.63;3.10;;;3.80;99.90;;;;;;7391333;19;20677;-72
2023/01/29 03:01:18;;;;;;;6.07;3.83;;;4.00;99.90;;;;;;7388096;19;20174;-71
2023/01/29 03:03:52;;;;;;;5.17;3.87;;;4.00;99.90;;;;;;7392409;19;20515;-72
2023/01/29 03:06:34;;;;;;;5.10;3.40;;;4.10;99.90;;;;;;7390845;19;20135;-71
2023/01/29 03:09:15;;;;;;;4.47;3.50;;;4.00;99.90;;;;;;7390632;19;20154;-71
2023/01/29 03:11:47;;;;;;;4.73;3.47;;;3.90;99.90;;;;;;7390305;19;20145;-73
2023/01/29 03:14:24;;;;;;;4.17;3.27;;;3.90;99.90;;;;;;7389047;19;20142;-71
2023/01/29 03:16:52;;;;;;;4.73;3.93;;;3.90;99.90;;;;;;7392809;19;20134;-71
2023/01/29 03:19:34;;;;;;;5.97;3.97;;;4.00;99.90;;;;;;7387173;19;20131;-71
2023/01/29 03:22:03;;;;;;;4.73;3.43;;;4.00;99.90;;;;;;7390674;19;20437;-72
2023/01/29 03:32:54;;;;;;;4.57;3.20;;;4.00;99.90;;;;;;7390089;19;20146;-72
2023/01/29 03:35:34;;;;;;;5.07;3.67;;;3.90;99.90;;;;;;7390214;19;20488;-71
2023/01/29 03:38:01;;;;;;;5.57;3.00;;;3.90;99.90;;;;;;7393896;19;20138;-71
2023/01/29 03:40:33;;;;;;;4.00;3.17;;;3.90;99.90;;;;;;7389168;19;20146;-72
2023/01/29 03:43:11;;;;;;;4.37;3.60;;;3.90;99.90;;;;;;7391762;19;20135;-71
2023/01/29 03:45:46;;;;;;;4.87;3.43;;;3.80;99.90;;;;;;7390947;19;20206;-72
2023/01/29 03:48:18;;;;;;;5.77;3.40;;;3.80;99.90;;;;;;7388980;19;20146;-72
2023/01/29 03:50:56;;;;;;;6.53;3.80;;;3.80;99.90;;;;;;7392669;19;20868;-72
2023/01/29 03:53:42;;;;;;;4.33;3.43;;;3.80;99.90;;;;;;7388537;19;20138;-72
2023/01/29 03:56:15;;;;;;;7.57;3.90;;;3.70;99.90;;;;;;7389043;19;20141;-71
2023/01/29 03:59:13;;;;;;;4.60;3.23;;;3.60;99.90;;;;;;7391914;19;20139;-71
2023/01/29 04:01:47;;;;;;;4.73;3.33;;;3.60;99.90;;;;;;7390028;19;20154;-71
2023/01/29 04:04:35;;;;;;;5.97;3.33;;;3.70;99.90;;;;;;7390608;19;20130;-73
2023/01/29 04:07:17;;;;;;;4.53;3.40;;;3.60;99.90;;;;;;7390825;19;20141;-72
2023/01/29 04:09:50;;;;;;;5.23;3.47;;;3.60;99.90;;;;;;7391238;19;20210;-72
2023/01/29 04:12:20;;;;;;;5.23;3.83;;;3.60;99.90;;;;;;7397329;19;20131;-72
2023/01/29 04:14:48;;;;;;;3.60;2.80;;;3.70;99.90;;;;;;7396900;19;20139;-71
2023/01/29 04:17:33;;;;;;;4.93;3.67;;;3.50;99.90;;;;;;7396762;19;20138;-71
2023/01/29 04:20:00;;;;;;;3.90;3.20;;;3.90;99.90;;;;;;7395157;19;20548;-71
2023/01/29 04:22:34;;;;;;;4.00;3.43;;;3.70;99.90;;;;;;7394465;19;20146;-72
2023/01/29 04:25:07;;;;;;;4.60;3.50;;;3.80;99.90;;;;;;7396690;19;20231;-72
2023/01/29 04:27:51;;;;;;;5.10;3.50;;;4.00;99.90;;;;;;7398159;19;20158;-70
2023/01/29 04:30:49;;;;;;;4.33;3.17;;;4.00;99.90;;;;;;7396640;19;20142;-71
2023/01/29 04:33:32;;;;;;;4.63;3.73;;;4.00;99.90;;;;;;7391440;19;20150;-72
2023/01/29 04:36:07;;;;;;;6.83;3.97;;;4.00;99.90;;;;;;7396230;19;20153;-72
2023/01/29 04:38:58;;;;;;;7.93;3.90;;;4.00;99.90;;;;;;7397435;19;20131;-71
2023/01/29 04:41:50;;;;;;;5.03;3.70;;;4.00;99.90;;;;;;7395216;19;20134;-72
2023/01/29 04:44:42;;;;;;;6.07;3.57;;;3.90;99.90;;;;;;7397869;19;20138;-71
2023/01/29 04:47:17;;;;;;;4.63;3.30;;;3.90;99.90;;;;;;7395949;19;20135;-72
2023/01/29 04:49:43;;;;;;;4.93;3.37;;;4.00;99.90;;;;;;7397535;19;20131;-71
2023/01/29 04:52:16;;;;;;;4.50;3.10;;;3.90;99.90;;;;;;7396070;19;20158;-71
2023/01/29 04:55:07;;;;;;;5.17;3.43;;;4.00;99.90;;;;;;7395870;19;20135;-72
2023/01/29 04:57:46;;;;;;;4.63;3.30;;;3.90;99.90;;;;;;7397117;19;20142;-73
2023/01/29 05:00:13;;;;;;;4.30;3.67;;;3.90;99.90;;;;;;7395416;19;20559;-71
2023/01/29 05:02:41;;;;;;;5.57;3.97;;;3.80;99.90;;;;;;7393829;19;20537;-71
2023/01/29 05:05:09;;;;;;;4.33;3.40;;;3.80;99.90;;;;;;7397070;19;20575;-72
2023/01/29 05:07:37;;;;;;;4.63;3.20;;;3.80;99.90;;;;;;7394280;19;20176;-73
2023/01/29 05:10:05;;;;;;;5.90;3.87;;;3.70;99.90;;;;;;7397045;19;20139;-72
2023/01/29 05:12:34;;;;;;;4.77;3.37;;;3.70;99.90;;;;;;7396660;19;20135;-73
2023/01/29 05:15:04;;;;;;;4.87;3.40;;;3.70;99.90;;;;;;7393748;19;20146;-72
2023/01/29 05:17:30;;;;;;;5.97;3.70;;;3.60;99.90;;;;;;7393301;19;20154;-72
2023/01/29 05:19:56;;;;;;;5.40;3.53;;;3.60;99.90;;;;;;7397708;19;20150;-73
2023/01/29 05:22:22;;;;;;;4.07;3.40;;;3.60;99.90;;;;;;7390402;19;20142;-73
2023/01/29 05:24:49;;;;;;;5.03;3.67;;;3.60;99.90;;;;;;7395404;19;20514;-72
2023/01/29 05:30:09;;;;;;;5.07;3.57;;;3.70;99.90;;;;;;7394720;19;20203;-72
2023/01/29 05:32:35;;;;;;;5.80;3.67;;;3.60;99.90;;;;;;7395199;19;20158;-73
2023/01/29 05:35:00;;;;;;;5.87;3.87;;;3.60;99.90;;;;;;7393401;19;20175;-72
2023/01/29 05:37:26;;;;;;;5.27;3.70;;;3.60;99.90;;;;;;7395633;19;20159;-72
2023/01/29 05:39:52;;;;;;;4.50;3.27;;;3.60;99.90;;;;;;7395239;19;20562;-72
2023/01/29 05:42:17;;;;;;;4.57;3.70;;;3.60;99.90;;;;;;7392243;19;20238;-72
2023/01/29 05:44:43;;;;;;;4.53;3.87;;;3.60;99.90;;;;;;7396291;19;20154;-71
2023/01/29 05:47:09;;;;;;;5.97;3.83;;;3.40;99.90;;;;;;7393460;19;21021;-72
2023/01/29 05:49:34;;;;;;;6.27;3.73;;;3.40;99.90;;;;;;7394279;19;20139;-72
2023/01/29 05:52:00;;;;;;;4.70;3.93;;;3.60;99.90;;;;;;7393883;19;20139;-72
2023/01/29 05:54:26;;;;;;;5.00;3.57;;;3.70;99.90;;;;;;7394029;19;20135;-72
2023/01/29 05:56:52;;;;;;;6.03;4.63;;;3.70;99.90;;;;;;7393389;19;20214;-72
2023/01/29 05:59:17;;;;;;;4.97;3.77;;;3.70;99.90;;;;;;7395781;19;20130;-72
2023/01/29 06:01:43;;;;;;;5.27;3.67;;;3.70;99.90;;;;;;7392279;19;20658;-72
2023/01/29 06:04:09;;;;;;;5.77;3.53;;;3.70;99.90;;;;;;7392771;19;20143;-71
2023/01/29 06:06:34;;;;;;;5.50;3.70;;;3.70;99.90;;;;;;7391845;19;20139;-71
2023/01/29 06:09:00;;;;;;;6.93;3.87;;;3.70;99.90;;;;;;7387956;19;20127;-72
2023/01/29 06:11:26;;;;;;;7.53;3.93;;;3.70;99.90;;;;;;7389759;19;20157;-73
2023/01/29 06:13:52;;;;;;;5.83;3.73;;;3.70;99.90;;;;;;7392924;19;20638;-72
2023/01/29 06:16:17;;;;;;;4.10;3.37;;;3.70;99.90;;;;;;7394403;19;20229;-72
2023/01/29 06:18:43;;;;;;;6.23;3.90;;;3.70;99.90;;;;;;7392134;19;20158;-72
2023/01/29 06:21:12;;;;;;;6.50;4.70;;;3.70;99.90;;;;;;7392925;19;20720;-73
2023/01/29 06:23:38;;;;;;;6.23;4.00;;;3.70;99.90;;;;;;7393892;19;20147;-71
2023/01/29 06:26:10;;;;;;;5.30;3.63;;;3.70;99.90;;;;;;7392702;19;20139;-72
2023/01/29 06:28:36;;;;;;;5.30;3.80;;;3.60;99.90;;;;;;7395757;19;20143;-73
2023/01/29 06:31:03;;;;;;;7.63;3.83;;;3.40;99.90;;;;;;7393561;19;20134;-72
2023/01/29 06:33:29;;;;;;;5.03;3.40;;;3.10;99.90;;;;;;7393668;19;20143;-73
2023/01/29 06:35:57;;;;;;;6.73;4.33;;;2.70;99.90;;;;;;7395798;19;20181;-73
2023/01/29 06:38:23;;;;;;;6.37;3.93;;;3.00;99.90;;;;;;7396343;19;20597;-72
2023/01/29 06:40:48;;;;;;;6.43;4.23;;;3.30;99.90;;;;;;7394984;19;20500;-71
2023/01/29 06:43:14;;;;;;;5.23;3.77;;;3.50;99.90;;;;;;7395088;19;20143;-73
2023/01/29 06:45:56;;;;;;;6.50;3.80;;;3.50;99.90;;;;;;7393365;19;20162;-73
2023/01/29 06:48:23;;;;;;;5.10;3.57;;;3.50;99.90;;;;;;7392301;19;20737;-72
2023/01/29 06:50:50;;;;;;;5.63;3.73;;;3.60;99.90;;;;;;7392543;19;20146;-71
2023/01/29 06:53:17;;;;;;;6.43;3.93;;;3.60;99.90;;;;;;7393884;19;20153;-72
2023/01/29 06:55:49;;;;;;;5.00;3.90;;;3.20;99.90;;;;;;7393478;19;20154;-72
2023/01/29 06:58:15;;;;;;;4.90;3.60;;;3.10;99.90;;;;;;7395322;19;20153;-72
2023/01/29 07:00:41;;;;;;;4.70;3.60;;;3.40;99.90;;;;;;7392388;19;20170;-73
2023/01/29 07:03:09;;;;;;;4.97;3.77;;;3.60;99.90;;;;;;7388637;19;20206;-72
2023/01/29 07:05:34;;;;;;;6.83;4.00;;;3.60;99.90;;;;;;7391355;19;20169;-73
2023/01/29 07:08:00;;;;;;;6.57;4.20;;;3.70;99.90;;;;;;7391931;19;20202;-75
2023/01/29 07:10:26;;;;;;;4.77;3.47;;;3.70;99.90;;;;;;7392006;19;20168;-72
2023/01/29 07:12:52;;;;;;;5.27;3.90;;;3.70;99.90;;;;;;7392364;19;20167;-72
2023/01/29 07:15:19;;;;;;;4.93;3.80;;;3.40;99.90;;;;;;7388605;19;20162;-72
2023/01/29 07:18:03;;;;;;;5.77;3.67;;;3.40;99.90;;;;;;7392651;19;20560;-71
2023/01/29 07:20:30;;;;;;;6.00;3.70;;;3.70;99.90;;;;;;7389840;19;20550;-73
2023/01/29 07:22:56;;;;;;;5.47;3.80;;;3.80;99.90;;;;;;7390635;19;20143;-73
2023/01/29 07:25:23;;;;;;;6.97;3.87;;;3.80;99.90;;;;;;7390900;19;20579;-72
2023/01/29 07:27:49;;;;;;;4.60;3.70;;;3.80;99.90;;;;;;7390459;19;20157;-71
2023/01/29 07:30:16;;;;;;;6.70;3.50;;;3.80;99.90;;;;;;7390458;19;20532;-71
2023/01/29 07:32:42;;;;;;;5.10;3.50;;;3.80;99.90;;;;;;7391714;19;20551;-74
2023/01/29 07:35:08;;;;;;;5.40;3.70;;;3.90;99.90;;;;;;7392129;19;20160;-72
2023/01/29 07:37:34;;;;;;;4.47;3.60;;;3.80;99.90;;;;;;7391427;19;20210;-73
2023/01/29 07:40:00;;;;;;;5.63;3.60;;;3.80;99.90;;;;;;7392788;19;20131;-72
2023/01/29 07:42:25;;;;;;;4.53;3.60;;;3.80;99.90;;;;;;7388133;19;20139;-73
2023/01/29 07:44:51;;;;;;;6.17;3.83;;;3.80;99.90;;;;;;7391690;19;20579;-73
2023/01/29 07:47:17;;;;;;;6.63;4.00;;;3.80;99.90;;;;;;7390253;19;20130;-72
2023/01/29 07:49:43;;;;;;;6.33;4.17;;;3.80;99.90;;;;;;7392904;19;20170;-72
2023/01/29 07:52:08;;;;;;;8.23;3.60;;;3.80;99.90;;;;;;7389319;19;20127;-72
2023/01/29 07:54:34;;;;;;;7.80;4.27;;;3.80;99.90;;;;;;7389761;19;20640;-72
2023/01/29 07:57:00;;;;;;;5.20;3.27;;;3.80;99.90;;;;;;7388747;19;20134;-72
2023/01/29 07:59:25;;;;;;;4.30;3.37;;;3.80;99.90;;;;;;7390087;19;20210;-72
2023/01/29 08:01:51;;;;;;;5.87;3.60;;;3.80;99.90;;;;;;7385898;19;20150;-73
2023/01/29 08:04:17;;;;;;;5.13;4.10;;;3.80;99.90;;;;;;7391415;19;20445;-72
2023/01/29 08:06:42;;;;;;;5.33;3.97;;;3.80;99.90;;;;;;7390434;19;20602;-71
2023/01/29 08:09:09;;;;;;;5.43;3.97;;;3.70;99.90;;;;;;7389180;19;20463;-72
2023/01/29 08:11:35;;;;;;;5.83;3.87;;;3.70;99.90;;;;;;7387718;19;21496;-72
2023/01/29 08:14:01;;;;;;;5.30;3.90;;;3.70;99.90;;;;;;7391916;19;20131;-73
2023/01/29 08:16:26;;;;;;;8.27;4.17;;;3.70;99.90;;;;;;7390281;19;20498;-72
2023/01/29 08:18:52;;;;;;;6.37;4.10;;;3.70;99.90;;;;;;7390902;19;20597;-73
2023/01/29 08:21:18;;;;;;;6.37;4.20;;;3.70;99.90;;;;;;7389152;19;20496;-72
2023/01/29 08:23:44;;;;;;;5.67;3.60;;;3.50;99.90;;;;;;7390235;19;20158;-71
2023/01/29 08:26:10;;;;;;;4.40;3.47;;;3.70;99.90;;;;;;7391591;19;20142;-72
2023/01/29 08:28:37;;;;;;;5.67;3.90;;;3.80;99.90;;;;;;7391019;19;20156;-71
2023/01/29 08:31:04;;;;;;;6.60;4.37;;;3.80;99.90;;;;;;7389329;19;20535;-72
2023/01/29 08:33:30;;;;;;;4.80;4.00;;;3.90;99.90;;;;;;7389347;19;20602;-72
2023/01/29 08:35:55;;;;;;;6.13;4.33;;;3.80;99.90;;;;;;7389187;19;20135;-72
2023/01/29 08:38:21;;;;;;;6.40;3.90;;;3.80;99.90;;;;;;7389520;19;20163;-73
2023/01/29 08:40:47;;;;;;;5.23;4.27;;;3.70;99.90;;;;;;7388182;19;20135;-74
2023/01/29 08:43:13;;;;;;;5.60;3.93;;;3.40;99.90;;;;;;7387538;19;20142;-73
2023/01/29 08:45:41;;;;;;;6.40;4.10;;;3.50;99.90;;;;;;7385608;19;20142;-73
2023/01/29 08:48:07;;;;;;;7.67;4.50;;;3.70;99.90;;;;;;7386032;19;20143;-73
2023/01/29 08:50:36;;;;;;;5.43;4.20;;;3.80;99.90;;;;;;7388501;19;20596;-73
2023/01/29 08:53:06;;;;;;;5.57;4.30;;;4.00;99.90;;;;;;7385594;19;20147;-71
2023/01/29 08:55:34;;;;;;;5.20;4.00;;;3.90;99.90;;;;;;7386442;19;20146;-74
2023/01/29 08:58:00;;;;;;;7.70;4.00;;;4.00;99.90;;;;;;7394378;19;20189;-73
2023/01/29 09:00:34;;;;;;;4.87;3.83;;;4.00;99.90;;;;;;7387655;19;20548;-71
2023/01/29 09:03:00;;;;;;;6.33;4.03;;;3.90;99.90;;;;;;7387372;19;20217;-73
2023/01/29 09:05:27;;;;;;;5.67;4.43;;;3.80;99.90;;;;;;7392585;19;20159;-72
2023/01/29 09:07:55;;;;;;;5.83;4.23;;;3.80;99.90;;;;;;7394348;19;20652;-72
2023/01/29 09:10:21;;;;;;;8.57;4.90;;;3.80;99.90;;;;;;7388742;19;20130;-73
2023/01/29 09:12:48;;;;;;;8.00;4.83;;;3.80;99.90;;;;;;7388634;19;20173;-73
2023/01/29 09:15:14;;;;;;;7.87;4.10;;;3.90;99.90;;;;;;7389194;19;20152;-74
2023/01/29 09:17:40;;;;;;;5.50;4.10;;;3.90;99.90;;;;;;7393745;19;20663;-73
2023/01/29 09:20:06;;;;;;;6.23;4.40;;;3.90;99.90;;;;;;7389600;19;20263;-72
2023/01/29 09:22:33;;;;;;;7.63;4.73;;;4.00;99.90;;;;;;7387477;19;20150;-73
2023/01/29 09:24:59;;;;;;;8.07;5.27;;;3.90;99.90;;;;;;7391056;19;20142;-71
2023/01/29 09:27:24;;;;;;;6.47;4.80;;;3.80;99.90;;;;;;7390305;19;20216;-72
2023/01/29 09:29:50;;;;;;;5.60;4.30;;;3.90;99.90;;;;;;7388239;19;22113;-71
2023/01/29 09:32:16;;;;;;;6.00;4.57;;;3.90;99.90;;;;;;7392636;19;20162;-73
2023/01/29 09:34:42;;;;;;;9.70;6.30;;;3.80;99.90;;;;;;7393019;19;20134;-73
2023/01/29 09:37:07;;;;;;;5.73;4.53;;;4.00;99.90;;;;;;7391209;19;20166;-73
2023/01/29 09:39:36;;;;;;;6.93;4.60;;;4.10;99.90;;;;;;7391574;19;20143;-72
2023/01/29 09:42:27;;;;;;;6.37;4.67;;;4.10;99.90;;;;;;7389468;19;20591;-72
2023/01/29 09:45:11;;;;;;;9.00;5.47;;;3.90;99.90;;;;;;7390769;19;20667;-71
2023/01/29 09:47:37;;;;;;;6.80;5.10;;;4.00;99.90;;;;;;7389262;19;20138;-73
2023/01/29 09:50:22;;;;;;;7.30;4.83;;;3.70;99.90;;;;;;7392845;19;20504;-73
2023/01/29 09:53:09;;;;;;;7.20;4.73;;;3.80;99.90;;;;;;7394098;19;20151;-72
2023/01/29 09:55:53;;;;;;;6.10;4.90;;;4.00;99.90;;;;;;7390829;19;20517;-72
2023/01/29 09:58:24;;;;;;;6.43;4.93;;;4.00;99.90;;;;;;7392201;19;20158;-72
2023/01/29 10:01:24;;;;;;;6.70;4.57;;;3.70;99.90;;;;;;7385113;19;20713;-72
2023/01/29 10:04:27;;;;;;;6.97;4.57;;;4.00;99.90;;;;;;7394086;19;20567;-73
2023/01/29 10:07:18;;;;;;;6.30;4.30;;;4.20;99.90;;;;;;7388709;19;20147;-70
2023/01/29 10:10:12;;;;;;;7.47;5.53;;;4.40;99.90;;;;;;7392224;19;20130;-72
2023/01/29 10:12:59;;;;;;;8.33;5.30;;;4.40;99.90;;;;;;7390310;19;20158;-69
2023/01/29 10:15:52;;;;;;;6.87;5.07;;;4.30;99.90;;;;;;7393020;19;20139;-71
2023/01/29 10:18:39;;;;;;;8.07;5.60;;;4.60;99.90;;;;;;7391173;19;20608;-72
2023/01/29 10:21:24;;;;;;;6.17;5.30;;;4.60;99.90;;;;;;7388066;19;20173;-70
2023/01/29 10:23:57;;;;;;;6.87;5.60;;;4.60;99.90;;;;;;7390430;19;20225;-71
2023/01/29 10:26:25;;;;;;;6.13;5.13;;;4.50;99.90;;;;;;7392568;19;20151;-72
2023/01/29 10:28:54;;;;;;;7.40;5.10;;;4.30;99.90;;;;;;7392332;19;20619;-70
2023/01/29 10:31:23;;;;;;;11.67;5.60;;;4.50;99.90;;;;;;7391945;19;20152;-73
2023/01/29 10:34:14;;;;;;;10.23;5.77;;;4.60;99.90;;;;;;7392729;19;20139;-72
2023/01/29 10:36:48;;;;;;;6.33;5.17;;;4.80;99.90;;;;;;7388556;19;20182;-73
2023/01/29 10:39:19;;;;;;;6.33;5.03;;;4.80;99.90;;;;;;7389736;19;20134;-71
2023/01/29 10:42:12;;;;;;;6.73;5.40;;;4.70;99.90;;;;;;7388584;19;20146;-72
2023/01/29 10:44:41;;;;;;;5.93;5.10;;;4.80;99.90;;;;;;7390904;19;20158;-70
2023/01/29 10:47:45;;;;;;;7.80;5.03;;;4.90;99.90;;;;;;7389774;19;20131;-75
2023/01/29 10:50:29;;;;;;;8.83;5.30;;;5.00;99.90;;;;;;7390352;19;20610;-73
2023/01/29 10:53:01;;;;;;;7.57;5.33;;;4.90;99.90;;;;;;7383976;19;20146;-75
2023/01/29 10:55:27;;;;;;;7.20;5.07;;;4.80;99.90;;;;;;7387019;19;20141;-71
2023/01/29 10:58:19;;;;;;;7.03;5.70;;;4.90;99.90;;;;;;7386819;19;20507;-73
2023/01/29 11:00:45;;;;;;;8.10;5.63;;;4.80;99.90;;;;;;7384552;19;20204;-73
2023/01/29 11:03:22;;;;;;;10.37;6.00;;;4.90;99.90;;;;;;7389535;19;20147;-71
2023/01/29 11:06:03;;;;;;;6.10;5.07;;;4.90;99.90;;;;;;7388863;19;20537;-72
2023/01/29 11:08:53;;;;;;;11.97;5.50;;;4.90;99.90;;;;;;7389881;19;20138;-72
2023/01/29 11:11:21;;;;;;;9.20;5.97;;;4.90;99.90;;;;;;7389564;19;20214;-72
2023/01/29 11:13:53;;;;;;;8.50;6.03;;;5.00;99.90;;;;;;7390597;19;20428;-71
2023/01/29 11:16:19;;;;;;;8.57;5.77;;;5.20;99.90;;;;;;7390584;19;20198;-73
2023/01/29 11:18:49;;;;;;;8.03;5.80;;;5.10;99.90;;;;;;7387501;19;20176;-73
2023/01/29 11:21:15;;;;;;;7.83;5.37;;;5.10;99.90;;;;;;7384784;19;20204;-72
2023/01/29 11:23:45;;;;;;;7.60;5.20;;;5.10;99.90;;;;;;7387224;19;20134;-72
2023/01/29 11:26:13;;;;;;;6.03;5.10;;;5.10;99.90;;;;;;7387137;19;20134;-73
2023/01/29 11:28:46;;;;;;;8.10;5.53;;;5.10;99.90;;;;;;7386111;19;20186;-72
2023/01/29 11:31:23;;;;;;;6.33;5.10;;;5.20;99.90;;;;;;7387011;19;20600;-72
2023/01/29 11:33:52;;;;;;;8.20;5.80;;;5.00;99.90;;;;;;7388932;19;20134;-71
2023/01/29 11:36:36;;;;;;;8.43;5.93;;;4.90;99.90;;;;;;7388876;19;20135;-73
2023/01/29 11:39:18;;;;;;;8.00;5.97;;;4.70;99.90;;;;;;7390777;19;20476;-72
2023/01/29 11:41:59;;;;;;;6.67;5.20;;;4.70;99.90;;;;;;7384961;19;20131;-71
2023/01/29 11:44:41;;;;;;;7.33;5.33;;;4.90;99.90;;;;;;7386381;19;20146;-72
2023/01/29 11:47:19;;;;;;;5.77;4.70;;;4.90;99.90;;;;;;7387833;19;20142;-73
2023/01/29 11:49:45;;;;;;;6.93;5.47;;;5.00;99.90;;;;;;7387451;19;20168;-72
2023/01/29 11:52:14;;;;;;;9.57;5.87;;;5.10;99.90;;;;;;7388073;19;20538;-71
2023/01/29 11:54:45;;;;;;;6.60;5.47;;;5.10;99.90;;;;;;7388976;19;20142;-73
2023/01/29 11:57:33;;;;;;;8.60;5.90;;;5.00;99.90;;;;;;7361904;19;73505;-72
2023/01/29 12:00:10;;;;;;;9.03;5.90;;;4.90;99.90;;;;;;7386401;19;20182;-72
2023/01/29 12:02:42;;;;;;;6.97;5.30;;;4.90;99.90;;;;;;7384519;19;20142;-73
2023/01/29 12:05:17;;;;;;;5.57;4.93;;;4.80;99.90;;;;;;7383253;19;20143;-72
2023/01/29 12:07:47;;;;;;;6.73;5.50;;;5.00;99.90;;;;;;7385984;19;20141;-71
2023/01/29 12:10:32;;;;;;;8.73;6.57;;;5.10;99.90;;;;;;7389111;19;20157;-71
2023/01/29 12:13:10;;;;;;;7.00;5.27;;;5.10;99.90;;;;;;7387037;19;20134;-71
2023/01/29 12:15:41;;;;;;;7.43;5.50;;;5.20;99.90;;;;;;7383691;19;20138;-72
2023/01/29 12:18:29;;;;;;;7.10;5.17;;;5.20;99.90;;;;;;7386104;19;20595;-71
2023/01/29 12:21:00;;;;;;;8.57;5.57;;;5.30;99.90;;;;;;7384522;19;20164;-72
2023/01/29 12:23:47;;;;;;;6.63;4.70;;;5.40;99.90;;;;;;7386427;19;20160;-71
2023/01/29 12:26:45;;;;;;;7.70;5.00;;;5.30;99.90;;;;;;7388397;19;20591;-71
2023/01/29 12:29:37;;;;;;;8.60;5.10;;;5.40;99.90;;;;;;7386671;19;20575;-72
2023/01/29 12:32:39;;;;;;;8.97;4.83;;;5.50;99.90;;;;;;7392938;19;20156;-70
2023/01/29 12:35:26;;;;;;;8.27;5.30;;;5.40;99.90;;;;;;7394603;19;20217;-72
2023/01/29 12:38:09;;;;;;;6.30;4.77;;;5.50;99.90;;;;;;7396684;19;20154;-73
2023/01/29 12:40:42;;;;;;;6.57;5.10;;;5.50;99.90;;;;;;7395558;19;20151;-73
2023/01/29 12:43:17;;;;;;;8.17;5.07;;;5.60;99.90;;;;;;7395273;19;20214;-73
2023/01/29 12:45:48;;;;;;;6.43;4.97;;;5.50;99.90;;;;;;7394958;19;20145;-71
2023/01/29 12:48:22;;;;;;;7.07;5.70;;;5.50;99.90;;;;;;7395042;19;20134;-73
2023/01/29 12:50:50;;;;;;;7.93;5.53;;;5.70;99.90;;;;;;7394375;19;20170;-72
2023/01/29 12:53:40;;;;;;;8.83;5.30;;;5.80;99.90;;;;;;7394878;19;20135;-70
2023/01/29 12:56:15;;;;;;;7.40;5.43;;;5.80;99.90;;;;;;7392912;19;20629;-71
2023/01/29 12:58:42;;;;;;;6.73;5.30;;;5.70;99.90;;;;;;7395308;19;20511;-71
2023/01/29 13:01:49;;;;;;;9.50;5.57;;;5.70;99.90;;;;;;7393976;19;20548;-71
2023/01/29 13:04:44;;;;;;;8.70;5.87;;;5.70;99.90;;;;;;7392614;19;20214;-71
2023/01/29 13:07:22;;;;;;;7.43;5.20;;;5.70;99.90;;;;;;7392558;19;20150;-71
2023/01/29 13:10:03;;;;;;;7.63;5.73;;;5.80;99.90;;;;;;7394560;19;20202;-72
2023/01/29 13:12:30;;;;;;;6.63;4.90;;;5.80;99.90;;;;;;7385912;19;20853;-73
2023/01/29 13:15:05;;;;;;;8.53;5.97;;;5.80;99.90;;;;;;7389354;19;20548;-72
2023/01/29 13:18:00;;;;;;;7.30;5.33;;;5.70;99.90;;;;;;7392265;19;20141;-74
2023/01/29 13:20:30;;;;;;;9.17;5.67;;;5.70;99.90;;;;;;7389638;19;20182;-73
2023/01/29 13:23:04;;;;;;;8.53;5.00;;;5.90;99.90;;;;;;7389959;19;20163;-73
2023/01/29 13:25:30;;;;;;;9.83;5.70;;;5.90;99.90;;;;;;7390667;19;20151;-72
2023/01/29 13:27:56;;;;;;;6.57;4.97;;;6.00;99.90;;;;;;7393115;19;20536;-73
2023/01/29 13:30:31;;;;;;;6.07;5.07;;;6.00;99.90;;;;;;7394111;19;20138;-71
2023/01/29 13:33:09;;;;;;;6.50;5.40;;;6.00;99.90;;;;;;7393446;19;20146;-72
2023/01/29 13:35:38;;;;;;;7.90;5.33;;;6.00;99.90;;;;;;7395486;19;20238;-72
2023/01/29 13:38:05;;;;;;;7.47;5.30;;;6.00;99.90;;;;;;7393429;19;20510;-72
2023/01/29 13:40:33;;;;;;;8.07;5.83;;;6.00;99.90;;;;;;7395682;19;20240;-73
2023/01/29 13:43:01;;;;;;;7.77;5.70;;;6.00;99.90;;;;;;7389688;19;20603;-71
2023/01/29 13:45:41;;;;;;;6.97;4.97;;;6.00;99.90;;;;;;7393423;19;20166;-73
2023/01/29 13:48:25;;;;;;;6.20;4.87;;;6.10;99.90;;;;;;7395700;19;20166;-73
2023/01/29 13:50:54;;;;;;;7.17;5.13;;;6.00;99.90;;;;;;7395554;19;20150;-76
2023/01/29 13:53:33;;;;;;;7.57;5.63;;;6.00;99.90;;;;;;7384238;19;20162;-72